Dice Roller

Roll history for Wahad

Showing rolls 1367 to 1386 of 1386 | top | prev 20

TimeCharacterCampaignDescriptionResults
2018-02-14 01:10:29KayodeDestiny of the DesertArcana1d20+19 20
2018-02-11 02:40:04MerieleStarlightHistory1d20+13 19
2018-02-04 03:31:45KayodeDestiny of the DesertDream Blade vs Reflex2#1d20+15 26 24 2d8+9 14
2018-01-25 13:26:27KayodeDestiny of the DesertDishearten vs Will1d20+15 34 1d6+9 11
2018-01-21 11:20:38MerieleStarlightStealth1d20+14 29
2018-01-19 02:42:39KayodeDestiny of the DesertDimensional Scramble vs Fortitude2#1d20+15 24 19 1d6+9 14
2018-01-18 01:35:02KayodeDestiny of the DesertKinetic Buffer vs Fortitude1d20+15 23 1d6+9 14
2018-01-11 04:44:05KayodeDestiny of the DesertPerception1d20+9 21
2018-01-11 01:14:53SilennaFate of LegendsGrasping Claws vs Reflex1d20+31 42 2d8+4d6+1d10+31 61
2018-01-11 00:48:43SilennaFate of LegendsSave vs Stun1d20+8 27
2018-01-05 03:51:21SilennaFate of LegendsInfiltrating Drone vs Reflex / vs Fort1d20+27 43 2d6+15 20 1d20+27 31
2018-01-05 03:47:27SilennaFate of LegendsInfiltrating Drone vs Reflex / vs Fort1d20+27 30 2d6+15 21 1d20+27 45
2018-01-02 05:28:09SilennaFate of LegendsNature1d20+25 35
2018-01-02 04:46:20KayodeDestiny of the DesertDiplomacy1d20+7 22
2017-12-28 03:33:55SilennaFate of LegendsPerception1d20+25 27
2017-12-28 03:32:36SilennaFate of LegendsStealth1d20+32 38
2017-11-30 12:22:52SilennaFate of LegendsPerception1d20+25 33
2017-11-30 12:20:35SilennaFate of LegendsStealth1d20+32 40
2017-11-25 06:01:31MerieleStarlightArcana1d20+12 17
2017-11-22 04:46:13MerieleStarlightCunning Ferocity vs Reflex1d20+13 14 1d8+6 13

Showing rolls 1367 to 1386 of 1386 | top | prev 20

Return to index | Roll some dice